createdAt,value
2022-12-17T00:04:27.695Z,72.58
2022-12-17T00:09:50.369Z,72.58
2022-12-17T00:15:10.458Z,72.56
2022-12-17T00:20:30.475Z,71.89
2022-12-17T00:25:50.466Z,71.83
2022-12-17T00:31:10.936Z,71.64
2022-12-17T00:36:31.102Z,71.26
2022-12-17T00:41:52.639Z,71.67
2022-12-17T00:47:12.596Z,72.19
2022-12-17T00:52:34.754Z,71.83
2022-12-17T00:57:54.653Z,72.33
2022-12-17T01:03:24.963Z,73.02
2022-12-17T01:08:44.900Z,72.68
2022-12-17T01:14:05.015Z,73.18
2022-12-17T01:19:45.032Z,73.29
2022-12-17T01:25:05.451Z,73.05
2022-12-17T01:30:26.386Z,72.50
2022-12-17T01:35:46.867Z,72.80
2022-12-17T01:41:10.993Z,72.32
2022-12-17T01:46:31.546Z,72.10
2022-12-17T01:51:52.913Z,71.44
2022-12-17T01:57:13.055Z,71.99
2022-12-17T02:02:33.107Z,71.62
2022-12-17T02:08:09.451Z,70.31
2022-12-17T02:13:38.511Z,71.27
2022-12-17T02:19:11.064Z,71.14
2022-12-17T02:24:44.226Z,71.19
2022-12-17T02:30:12.332Z,70.87
2022-12-17T02:35:35.862Z,71.45
2022-12-17T02:40:56.929Z,70.61
2022-12-17T02:46:17.420Z,71.11
2022-12-17T02:51:41.794Z,70.46
2022-12-17T02:57:01.912Z,70.41
2022-12-17T03:02:21.867Z,70.74
2022-12-17T03:07:42.127Z,70.53
2022-12-17T03:13:02.509Z,70.13
2022-12-17T03:18:22.574Z,70.46
2022-12-17T03:23:42.358Z,70.16
2022-12-17T03:29:02.543Z,70.50
2022-12-17T03:34:22.711Z,70.28
2022-12-17T03:39:42.524Z,69.75
2022-12-17T03:45:02.861Z,70.63
2022-12-17T03:50:24.343Z,69.87
2022-12-17T03:55:44.335Z,70.25
2022-12-17T04:01:04.854Z,70.00
2022-12-17T04:06:24.788Z,70.07
2022-12-17T04:11:44.748Z,69.81
2022-12-17T04:17:04.610Z,69.72
2022-12-17T04:22:25.133Z,69.12
2022-12-17T04:27:44.989Z,69.39
2022-12-17T04:33:05.600Z,69.29
2022-12-17T04:38:26.304Z,69.36
2022-12-17T04:43:46.511Z,69.44
2022-12-17T04:49:06.912Z,69.22
2022-12-17T04:54:27.144Z,69.41
2022-12-17T04:59:48.331Z,69.71
2022-12-17T05:05:08.746Z,69.32
2022-12-17T05:10:28.680Z,69.17
2022-12-17T05:15:53.151Z,69.11
2022-12-17T05:21:15.481Z,69.10
2022-12-17T05:26:41.710Z,69.25
2022-12-17T05:32:01.501Z,68.53
2022-12-17T05:37:21.184Z,68.63
2022-12-17T05:42:41.244Z,68.59
2022-12-17T05:48:01.256Z,69.75
2022-12-17T05:53:24.996Z,70.60
2022-12-17T05:58:45.467Z,70.71
2022-12-17T06:04:06.005Z,70.70
2022-12-17T06:09:26.337Z,70.33
2022-12-17T06:14:46.380Z,70.22
2022-12-17T06:20:06.258Z,71.04
2022-12-17T06:25:26.783Z,71.32
2022-12-17T06:30:47.434Z,71.64
2022-12-17T06:36:07.782Z,71.25
2022-12-17T06:41:27.660Z,71.11
2022-12-17T06:46:47.637Z,71.33
2022-12-17T06:52:09.708Z,70.79
2022-12-17T06:57:30.342Z,70.13
2022-12-17T07:02:50.756Z,70.70
2022-12-17T07:08:18.697Z,71.62
2022-12-17T07:13:38.985Z,73.65
2022-12-17T07:18:59.405Z,73.29
2022-12-17T07:24:19.658Z,73.54
2022-12-17T07:29:39.759Z,74.71
2022-12-17T07:35:00.047Z,75.70
2022-12-17T07:40:20.947Z,75.72
2022-12-17T07:45:41.275Z,76.33
2022-12-17T07:51:01.492Z,75.77
2022-12-17T07:56:21.286Z,75.45
2022-12-17T08:01:41.812Z,74.49
2022-12-17T08:07:08.732Z,75.33
2022-12-17T08:12:43.976Z,74.31
2022-12-17T08:18:03.875Z,74.23
2022-12-17T08:23:24.854Z,74.24
2022-12-17T08:28:52.364Z,73.98
2022-12-17T08:34:15.607Z,74.66
2022-12-17T08:39:36.894Z,75.06
2022-12-17T08:44:57.236Z,75.01
2022-12-17T08:50:17.350Z,74.49
2022-12-17T08:55:37.742Z,74.31
2022-12-17T09:00:58.993Z,73.72
2022-12-17T09:06:19.283Z,74.33
2022-12-17T09:11:39.366Z,74.25
2022-12-17T09:16:59.875Z,74.40
2022-12-17T09:22:20.003Z,74.19
2022-12-17T09:27:40.079Z,73.92
2022-12-17T09:33:00.849Z,74.27
2022-12-17T09:38:21.208Z,73.68
2022-12-17T09:43:50.754Z,74.27
2022-12-17T09:49:19.381Z,72.93
2022-12-17T09:55:01.989Z,73.13
2022-12-17T10:00:39.046Z,73.83
2022-12-17T10:05:59.747Z,73.77
2022-12-17T10:11:34.511Z,73.27
2022-12-17T10:17:11.730Z,73.31
2022-12-17T10:22:37.936Z,73.28
2022-12-17T10:28:00.374Z,73.27
2022-12-17T10:33:24.679Z,73.25
2022-12-17T10:38:48.717Z,73.89
2022-12-17T10:44:08.555Z,73.31
2022-12-17T10:49:34.738Z,73.32
2022-12-17T10:54:55.393Z,73.75
2022-12-17T11:00:15.566Z,73.13
2022-12-17T11:05:59.198Z,72.76
2022-12-17T11:11:22.873Z,72.65
2022-12-17T11:16:46.194Z,71.99
2022-12-17T11:22:09.819Z,72.35
2022-12-17T11:27:37.216Z,71.99
2022-12-17T11:33:16.852Z,72.52
2022-12-17T11:38:49.029Z,72.77
2022-12-17T11:44:31.147Z,71.49
2022-12-17T11:50:00.704Z,71.91
2022-12-17T11:55:50.074Z,72.28
2022-12-17T12:01:25.850Z,72.41
2022-12-17T12:07:15.352Z,71.19
2022-12-17T12:12:59.140Z,71.00
2022-12-17T12:18:46.639Z,71.20
2022-12-17T12:24:31.119Z,71.23
2022-12-17T12:30:01.712Z,70.12
2022-12-17T12:35:24.144Z,70.75
2022-12-17T12:40:56.851Z,70.87
2022-12-17T12:46:40.101Z,70.71
2022-12-17T12:52:01.001Z,71.43
2022-12-17T12:57:20.893Z,72.17
2022-12-17T13:02:51.524Z,71.69
2022-12-17T13:08:03.705Z,70.25
2022-12-17T13:13:55.948Z,70.64
2022-12-17T13:19:04.185Z,71.29
2022-12-17T13:24:22.726Z,71.71
2022-12-17T13:29:32.221Z,71.88
2022-12-17T13:35:10.458Z,72.64
2022-12-17T13:40:45.253Z,72.90
2022-12-17T13:45:47.310Z,72.52
2022-12-17T13:51:02.134Z,72.61
2022-12-17T13:56:03.845Z,71.48
2022-12-17T14:01:09.195Z,72.29
2022-12-17T14:06:11.498Z,71.73
2022-12-17T14:11:31.585Z,72.13
2022-12-17T14:16:33.090Z,72.23
2022-12-17T14:21:37.310Z,72.64
2022-12-17T14:26:53.303Z,72.99
2022-12-17T14:32:03.932Z,72.51
2022-12-17T14:37:05.577Z,72.91
2022-12-17T14:42:26.793Z,73.56
2022-12-17T14:47:41.590Z,73.74
2022-12-17T14:52:49.059Z,74.10
2022-12-17T14:57:51.611Z,74.07
2022-12-17T15:02:55.098Z,73.98
2022-12-17T15:07:57.012Z,74.03
2022-12-17T15:12:59.924Z,72.64
2022-12-17T15:18:02.499Z,73.40
2022-12-17T15:23:04.052Z,73.79
2022-12-17T15:28:05.378Z,73.40
2022-12-17T15:33:08.463Z,73.65
2022-12-17T15:38:11.248Z,72.61
2022-12-17T15:43:15.379Z,72.78
2022-12-17T15:48:21.836Z,72.04
2022-12-17T15:53:25.637Z,73.03
2022-12-17T15:58:27.534Z,73.82
2022-12-17T16:03:29.100Z,74.02
2022-12-17T16:08:30.572Z,73.88
2022-12-17T16:13:31.945Z,74.20
2022-12-17T16:18:33.659Z,74.76
2022-12-17T16:23:37.596Z,74.69
2022-12-17T16:28:40.264Z,74.92
2022-12-17T16:33:43.214Z,75.01
2022-12-17T16:38:47.677Z,74.35
2022-12-17T16:43:50.074Z,74.09
2022-12-17T16:48:52.437Z,74.76
2022-12-17T16:53:54.057Z,74.99
2022-12-17T16:58:56.640Z,74.42
2022-12-17T17:04:07.104Z,74.79
2022-12-17T17:09:09.646Z,74.12
2022-12-17T17:14:11.341Z,75.76
2022-12-17T17:19:13.529Z,72.83
2022-12-17T17:24:21.448Z,72.57
2022-12-17T17:29:24.232Z,73.66
2022-12-17T17:34:25.652Z,74.32
2022-12-17T17:39:31.859Z,73.57
2022-12-17T17:44:33.814Z,74.63
2022-12-17T17:49:38.618Z,73.97
2022-12-17T17:54:40.809Z,73.36
2022-12-17T17:59:42.528Z,73.69
2022-12-17T18:04:44.184Z,73.73
2022-12-17T18:09:46.784Z,73.44
2022-12-17T18:15:12.776Z,73.88
2022-12-17T18:20:10.708Z,72.78
2022-12-17T18:25:13.450Z,73.48
2022-12-17T18:30:16.243Z,73.27
2022-12-17T18:35:18.059Z,72.68
2022-12-17T18:40:19.721Z,71.85
2022-12-17T18:45:21.395Z,71.07
2022-12-17T18:50:23.791Z,71.71
2022-12-17T18:55:25.655Z,72.34
2022-12-17T19:00:27.055Z,72.61
2022-12-17T19:05:30.805Z,72.65
2022-12-17T19:10:37.629Z,73.09
2022-12-17T19:15:39.264Z,72.40
2022-12-17T19:20:40.635Z,71.82
2022-12-17T19:25:42.243Z,71.90
2022-12-17T19:30:44.277Z,71.22
2022-12-17T19:35:45.676Z,71.05
2022-12-17T19:40:52.129Z,71.50
2022-12-17T19:46:01.361Z,72.11
2022-12-17T19:51:04.126Z,71.66
2022-12-17T19:56:32.552Z,72.16
2022-12-17T20:01:41.280Z,72.19
2022-12-17T20:06:44.141Z,71.39
2022-12-17T20:11:45.579Z,72.47
2022-12-17T20:16:58.197Z,71.69
2022-12-17T20:22:02.015Z,72.24
2022-12-17T20:27:03.835Z,73.35
2022-12-17T20:32:05.476Z,73.43
2022-12-17T20:37:07.042Z,73.03
2022-12-17T20:42:09.269Z,73.01
2022-12-17T20:47:10.727Z,74.13
2022-12-17T20:52:12.233Z,73.64
2022-12-17T20:57:15.959Z,74.21
2022-12-17T21:02:18.647Z,74.58
2022-12-17T21:07:20.075Z,73.97
2022-12-17T21:12:21.461Z,73.51
2022-12-17T21:17:23.507Z,72.75
2022-12-17T21:22:25.309Z,72.65
2022-12-17T21:27:26.714Z,72.88
2022-12-17T21:32:33.707Z,73.24
2022-12-17T21:37:35.400Z,73.17
2022-12-17T21:43:13.838Z,73.85
2022-12-17T21:48:15.530Z,74.12
2022-12-17T21:53:17.087Z,73.33
2022-12-17T21:58:19.227Z,73.64
2022-12-17T22:03:20.846Z,74.28
2022-12-17T22:08:22.239Z,73.63
2022-12-17T22:13:42.663Z,73.73
2022-12-17T22:18:44.123Z,73.08
2022-12-17T22:23:49.223Z,73.32
2022-12-17T22:28:50.964Z,72.87
2022-12-17T22:35:08.328Z,72.02
2022-12-17T22:44:15.258Z,72.36
2022-12-17T22:44:51.775Z,72.87
2022-12-17T22:49:55.354Z,73.77
2022-12-17T22:54:57.350Z,74.11
2022-12-17T23:00:00.781Z,73.69
2022-12-17T23:05:02.155Z,73.68
2022-12-17T23:10:05.002Z,74.66
2022-12-17T23:15:06.900Z,74.22
2022-12-17T23:20:08.874Z,73.84
2022-12-17T23:25:10.765Z,73.82
2022-12-17T23:30:13.940Z,73.26
2022-12-17T23:35:15.611Z,73.42
2022-12-17T23:40:17.106Z,73.39
2022-12-17T23:45:18.746Z,72.88
2022-12-17T23:50:20.094Z,72.58
2022-12-17T23:55:21.489Z,72.37
